createdAt,value
2019-02-23T00:00:07.752Z,7.40
2019-02-23T00:02:37.120Z,7.30
2019-02-23T00:05:04.608Z,7.20
2019-02-23T00:07:32.043Z,7.20
2019-02-23T00:10:01.150Z,7.20
2019-02-23T00:12:28.779Z,7.20
2019-02-23T00:14:56.058Z,7.30
2019-02-23T00:17:25.562Z,7.30
2019-02-23T00:19:52.824Z,7.20
2019-02-23T00:22:20.184Z,7.20
2019-02-23T00:24:47.632Z,7.10
2019-02-23T00:27:15.082Z,7.00
2019-02-23T00:29:42.413Z,7.00
2019-02-23T00:32:09.723Z,7.00
2019-02-23T00:34:37.137Z,7.00
2019-02-23T00:37:04.497Z,6.90
2019-02-23T00:39:32.702Z,6.80
2019-02-23T00:42:01.212Z,6.80
2019-02-23T00:44:28.576Z,6.80
2019-02-23T00:46:55.917Z,6.80
2019-02-23T00:49:23.297Z,6.70
2019-02-23T00:51:51.858Z,6.70
2019-02-23T00:54:19.443Z,6.80
2019-02-23T00:56:46.805Z,6.90
2019-02-23T00:59:14.077Z,6.90
2019-02-23T01:01:41.445Z,7.00
2019-02-23T01:04:08.899Z,6.90
2019-02-23T01:06:36.321Z,6.80
2019-02-23T01:09:04.353Z,6.70
2019-02-23T01:11:33.713Z,6.60
2019-02-23T01:14:01.018Z,6.60
2019-02-23T01:16:29.664Z,6.70
2019-02-23T01:18:57.067Z,6.80
2019-02-23T01:21:24.523Z,6.70
2019-02-23T01:23:51.904Z,6.60
2019-02-23T01:26:19.329Z,6.50
2019-02-23T01:28:46.761Z,6.40
2019-02-23T01:31:14.205Z,6.30
2019-02-23T01:33:41.661Z,6.20
2019-02-23T01:36:09.361Z,6.10
2019-02-23T01:38:36.849Z,6.10
2019-02-23T01:41:04.401Z,6.20
2019-02-23T01:43:32.820Z,6.30
2019-02-23T01:46:00.103Z,6.30
2019-02-23T01:48:27.715Z,6.20
2019-02-23T01:50:56.876Z,6.20
2019-02-23T01:53:24.293Z,6.20
2019-02-23T01:55:51.670Z,6.20
2019-02-23T01:58:18.993Z,6.20
2019-02-23T02:00:46.447Z,6.20
2019-02-23T02:03:14.900Z,6.20
2019-02-23T02:05:42.401Z,6.20
2019-02-23T02:08:09.749Z,6.10
2019-02-23T02:10:38.895Z,6.10
2019-02-23T02:13:07.589Z,6.00
2019-02-23T02:15:36.825Z,5.90
2019-02-23T02:18:04.185Z,5.90
2019-02-23T02:20:31.590Z,5.80
2019-02-23T02:22:58.878Z,5.80
2019-02-23T02:25:26.359Z,5.70
2019-02-23T02:27:54.942Z,5.70
2019-02-23T02:30:22.299Z,5.70
2019-02-23T02:32:50.810Z,5.70
2019-02-23T02:35:18.153Z,5.70
2019-02-23T02:37:46.624Z,5.70
2019-02-23T02:40:13.965Z,5.80
2019-02-23T02:42:42.398Z,5.70
2019-02-23T02:45:10.291Z,5.70
2019-02-23T02:47:37.759Z,5.60
2019-02-23T02:50:06.626Z,5.60
2019-02-23T02:52:33.947Z,5.60
2019-02-23T02:55:01.470Z,5.60
2019-02-23T02:57:29.116Z,5.60
2019-02-23T02:59:56.478Z,5.70
2019-02-23T03:02:23.890Z,5.70
2019-02-23T03:04:51.238Z,5.70
2019-02-23T03:07:18.816Z,5.80
2019-02-23T03:09:48.374Z,5.80
2019-02-23T03:12:15.812Z,5.70
2019-02-23T03:14:44.286Z,5.70
2019-02-23T03:17:11.658Z,5.70
2019-02-23T03:19:38.954Z,5.60
2019-02-23T03:22:06.426Z,5.50
2019-02-23T03:24:33.909Z,5.40
2019-02-23T03:27:01.279Z,5.20
2019-02-23T03:29:28.588Z,5.10
2019-02-23T03:31:56.046Z,5.20
2019-02-23T03:34:23.412Z,5.30
2019-02-23T03:36:50.794Z,5.40
2019-02-23T03:39:18.274Z,5.40
2019-02-23T03:41:45.723Z,5.50
2019-02-23T03:44:13.139Z,5.50
2019-02-23T03:46:40.548Z,5.40
2019-02-23T03:49:09.052Z,5.30
2019-02-23T03:51:37.555Z,5.30
2019-02-23T03:54:05.054Z,5.30
2019-02-23T03:56:32.954Z,5.20
2019-02-23T03:59:00.623Z,5.10
2019-02-23T04:01:28.074Z,5.00
2019-02-23T04:03:55.492Z,5.10
2019-02-23T04:06:24.366Z,5.00
2019-02-23T04:08:51.822Z,5.00
2019-02-23T04:11:19.212Z,5.00
2019-02-23T04:13:46.520Z,4.90
2019-02-23T04:16:13.946Z,4.80
2019-02-23T04:18:41.392Z,4.70
2019-02-23T04:21:08.690Z,4.60
2019-02-23T04:23:36.469Z,4.50
2019-02-23T04:26:03.866Z,4.50
2019-02-23T04:28:31.213Z,4.50
2019-02-23T04:30:58.561Z,4.50
2019-02-23T04:33:26.095Z,4.40
2019-02-23T04:35:53.460Z,4.40
2019-02-23T04:38:20.788Z,4.40
2019-02-23T04:40:49.071Z,4.40
2019-02-23T04:43:16.521Z,4.50
2019-02-23T04:45:44.013Z,4.50
2019-02-23T04:48:11.448Z,4.50
2019-02-23T04:50:38.864Z,4.60
2019-02-23T04:53:06.310Z,4.60
2019-02-23T04:55:33.813Z,4.70
2019-02-23T04:58:01.124Z,4.60
2019-02-23T05:00:28.534Z,4.70
2019-02-23T05:02:55.922Z,4.80
2019-02-23T05:05:23.330Z,4.90
2019-02-23T05:07:50.697Z,5.00
2019-02-23T05:10:18.117Z,5.10
2019-02-23T05:12:45.583Z,5.20
2019-02-23T05:15:12.976Z,5.10
2019-02-23T05:17:40.281Z,5.10
2019-02-23T05:20:07.621Z,5.00
2019-02-23T05:22:34.949Z,4.90
2019-02-23T05:25:02.459Z,4.90
2019-02-23T05:27:30.941Z,5.00
2019-02-23T05:29:58.297Z,4.90
2019-02-23T05:32:25.635Z,4.80
2019-02-23T05:34:53.125Z,4.80
2019-02-23T05:37:20.473Z,4.70
2019-02-23T05:39:47.947Z,4.60
2019-02-23T05:42:15.364Z,4.70
2019-02-23T05:44:44.249Z,4.80
2019-02-23T05:47:11.654Z,4.90
2019-02-23T05:49:39.092Z,4.90
2019-02-23T05:52:06.474Z,4.90
2019-02-23T05:54:33.834Z,5.00
2019-02-23T05:57:01.195Z,5.00
2019-02-23T05:59:28.720Z,4.90
2019-02-23T06:01:56.159Z,4.70
2019-02-23T06:04:23.635Z,4.50
2019-02-23T06:06:51.048Z,4.50
2019-02-23T06:09:18.480Z,4.50
2019-02-23T06:11:45.928Z,4.40
2019-02-23T06:14:14.519Z,4.30
2019-02-23T06:16:41.939Z,4.30
2019-02-23T06:19:09.454Z,4.20
2019-02-23T06:21:36.914Z,4.10
2019-02-23T06:24:04.228Z,4.00
2019-02-23T06:26:31.641Z,4.10
2019-02-23T06:28:59.072Z,4.00
2019-02-23T06:31:26.555Z,3.90
2019-02-23T06:33:54.073Z,3.90
2019-02-23T06:36:21.528Z,3.80
2019-02-23T06:39:08.328Z,3.90
2019-02-23T06:41:36.015Z,3.80
2019-02-23T06:44:03.453Z,3.90
2019-02-23T06:46:31.103Z,3.90
2019-02-23T06:48:58.962Z,4.00
2019-02-23T06:51:26.405Z,4.10
2019-02-23T06:53:53.982Z,4.10
2019-02-23T06:56:22.719Z,4.20
2019-02-23T06:58:50.225Z,4.30
2019-02-23T07:01:17.787Z,4.30
2019-02-23T07:03:45.217Z,4.40
2019-02-23T07:06:12.561Z,4.40
2019-02-23T07:08:40.045Z,4.50
2019-02-23T07:11:07.574Z,4.60
2019-02-23T07:13:54.519Z,4.70
2019-02-23T07:16:23.167Z,4.70
2019-02-23T07:18:50.671Z,4.70
2019-02-23T07:21:18.227Z,4.70
2019-02-23T07:23:47.213Z,4.60
2019-02-23T07:26:14.804Z,4.60
2019-02-23T07:28:42.501Z,4.60
2019-02-23T07:31:10.033Z,4.70
2019-02-23T07:33:37.572Z,4.60
2019-02-23T07:36:05.085Z,4.60
2019-02-23T07:38:32.555Z,4.60
2019-02-23T07:41:00.097Z,4.60
2019-02-23T07:43:27.553Z,4.50
2019-02-23T07:45:54.965Z,4.40
2019-02-23T07:48:22.484Z,4.40
2019-02-23T07:50:49.906Z,4.30
2019-02-23T07:53:18.470Z,4.20
2019-02-23T07:55:46.111Z,4.20
2019-02-23T07:58:14.565Z,4.30
2019-02-23T08:00:42.113Z,4.40
2019-02-23T08:03:09.582Z,4.50
2019-02-23T08:05:37.081Z,4.70
2019-02-23T08:08:05.825Z,4.70
2019-02-23T08:10:33.213Z,4.80
2019-02-23T08:13:00.690Z,4.90
2019-02-23T08:15:28.121Z,5.00
2019-02-23T08:17:55.574Z,4.90
2019-02-23T08:20:23.185Z,5.00
2019-02-23T08:22:51.878Z,4.80
2019-02-23T08:25:20.526Z,4.80
2019-02-23T08:27:47.987Z,4.80
2019-02-23T08:30:15.449Z,4.90
2019-02-23T08:32:43.053Z,4.80
2019-02-23T08:35:10.557Z,4.80
2019-02-23T08:37:38.019Z,4.80
2019-02-23T08:40:06.124Z,4.70
2019-02-23T08:42:34.785Z,4.80
2019-02-23T08:45:02.219Z,4.80
2019-02-23T08:47:29.783Z,4.90
2019-02-23T08:49:57.143Z,5.10
2019-02-23T08:52:24.596Z,5.20
2019-02-23T08:54:53.160Z,5.30
2019-02-23T08:57:20.673Z,5.50
2019-02-23T08:59:47.980Z,5.70
2019-02-23T09:02:15.534Z,5.90
2019-02-23T09:04:43.047Z,6.10
2019-02-23T09:07:23.339Z,6.30
2019-02-23T09:09:50.975Z,6.40
2019-02-23T09:12:20.295Z,6.60
2019-02-23T09:14:47.781Z,6.80
2019-02-23T09:17:15.204Z,6.90
2019-02-23T17:00:46.509Z,8.20
2019-02-23T17:03:14.085Z,8.20
2019-02-23T17:05:41.473Z,8.30
2019-02-23T17:08:08.887Z,8.60
2019-02-23T17:10:36.246Z,8.90
2019-02-23T17:13:03.816Z,9.10
2019-02-23T17:15:33.095Z,9.40
2019-02-23T17:18:03.555Z,9.50
2019-02-23T17:20:31.061Z,9.60
2019-02-23T17:23:01.785Z,9.70
2019-02-23T17:25:29.742Z,9.90
2019-02-23T17:27:57.277Z,9.90
2019-02-23T17:30:24.814Z,9.90
2019-02-23T17:32:52.303Z,10.00
2019-02-23T17:35:19.723Z,10.00
2019-02-23T17:37:47.785Z,10.00
2019-02-23T17:40:15.254Z,10.00
2019-02-23T17:42:42.731Z,10.10
2019-02-23T17:45:10.163Z,10.20
2019-02-23T17:47:37.787Z,10.20
2019-02-23T17:50:05.265Z,10.20
2019-02-23T17:52:32.706Z,10.30
2019-02-23T17:55:00.140Z,10.30
2019-02-23T17:57:29.115Z,10.30
2019-02-23T17:59:59.650Z,10.30
2019-02-23T18:02:27.180Z,10.30
2019-02-23T18:04:54.613Z,10.20
2019-02-23T18:07:22.105Z,10.00
2019-02-23T18:09:49.444Z,9.90
2019-02-23T18:12:16.906Z,9.60
2019-02-23T18:14:44.383Z,9.50
2019-02-23T18:17:11.887Z,9.40
2019-02-23T18:19:39.299Z,9.40
2019-02-23T18:22:06.623Z,9.40
2019-02-23T18:24:33.956Z,9.40
2019-02-23T18:27:03.603Z,9.30
2019-02-23T18:29:31.293Z,9.20
2019-02-23T18:32:00.194Z,9.20
2019-02-23T18:34:27.927Z,9.10
2019-02-23T18:36:55.531Z,9.00
2019-02-23T18:39:23.085Z,8.90
2019-02-23T18:41:50.740Z,9.00
2019-02-23T18:44:18.387Z,9.00
2019-02-23T18:46:46.150Z,8.90
2019-02-23T18:49:13.765Z,9.00
2019-02-23T18:51:43.367Z,8.90
2019-02-23T18:54:12.962Z,9.00
2019-02-23T18:56:40.587Z,9.10
2019-02-23T18:59:08.611Z,9.00
2019-02-23T19:01:36.553Z,9.00
2019-02-23T19:04:04.364Z,8.90
2019-02-23T19:06:33.096Z,8.90
2019-02-23T19:09:01.121Z,8.90
2019-02-23T19:11:31.916Z,9.00
2019-02-23T19:13:59.729Z,9.00
2019-02-23T19:16:29.404Z,9.10
2019-02-23T19:18:57.189Z,9.00
2019-02-23T19:21:28.643Z,8.90
2019-02-23T19:23:59.429Z,9.00
2019-02-23T19:26:28.341Z,9.00
2019-02-23T19:28:57.385Z,9.00
2019-02-23T19:31:25.037Z,8.90
2019-02-23T19:33:52.789Z,8.90
2019-02-23T19:36:20.567Z,8.90
2019-02-23T19:38:48.386Z,8.90
2019-02-23T19:41:35.550Z,9.00
2019-02-23T19:44:06.748Z,9.00
2019-02-23T19:46:38.701Z,9.00
2019-02-23T19:49:06.568Z,9.10
2019-02-23T19:51:34.216Z,9.10
2019-02-23T19:54:03.731Z,9.00
2019-02-23T19:56:31.622Z,9.00
2019-02-23T19:59:03.495Z,8.90
2019-02-23T20:01:32.454Z,8.90
2019-02-23T20:04:00.555Z,8.90
2019-02-23T20:06:28.505Z,8.90
2019-02-23T20:08:56.717Z,8.90
2019-02-23T20:11:26.184Z,8.80
2019-02-23T20:13:55.630Z,8.80
2019-02-23T20:16:23.302Z,8.80
2019-02-23T20:18:52.492Z,8.70
2019-02-23T20:21:20.277Z,8.60
2019-02-23T20:23:48.126Z,8.60
2019-02-23T20:26:17.833Z,8.50
2019-02-23T20:28:47.079Z,8.50
2019-02-23T20:31:14.952Z,8.50
2019-02-23T20:33:42.748Z,8.50
2019-02-23T20:36:10.453Z,8.60
2019-02-23T20:38:39.543Z,8.60
2019-02-23T20:41:08.575Z,8.60
2019-02-23T20:43:36.328Z,8.60
2019-02-23T20:46:04.224Z,8.60
2019-02-23T20:48:32.146Z,8.60
2019-02-23T20:50:59.931Z,8.70
2019-02-23T20:53:28.796Z,8.60
2019-02-23T20:55:56.458Z,8.60
2019-02-23T20:58:24.187Z,8.60
2019-02-23T21:00:51.932Z,8.60
2019-02-23T21:03:21.516Z,8.50
2019-02-23T21:05:49.217Z,8.40
2019-02-23T21:08:16.927Z,8.30
2019-02-23T21:10:46.418Z,8.10
2019-02-23T21:13:15.781Z,8.10
2019-02-23T21:15:43.555Z,8.10
2019-02-23T21:18:11.346Z,8.10
2019-02-23T21:20:39.105Z,8.10
2019-02-23T21:23:07.938Z,8.20
2019-02-23T21:25:37.356Z,8.10
2019-02-23T21:28:06.730Z,8.10
2019-02-23T21:30:36.177Z,8.10
2019-02-23T21:33:03.802Z,8.10
2019-02-23T21:35:31.521Z,8.10
2019-02-23T21:37:59.210Z,8.10
2019-02-23T21:40:27.273Z,8.10
2019-02-23T21:42:54.890Z,8.10
2019-02-23T21:45:23.130Z,8.10
2019-02-23T21:47:52.023Z,8.00
2019-02-23T21:50:19.679Z,7.90
2019-02-23T21:52:47.633Z,7.90
2019-02-23T21:55:15.346Z,7.90
2019-02-23T21:57:44.741Z,8.00
2019-02-23T22:00:12.323Z,7.90
2019-02-23T22:02:40.247Z,7.90
2019-02-23T22:05:12.301Z,7.90
2019-02-23T22:07:39.270Z,7.80
2019-02-23T22:10:06.966Z,7.70
2019-02-23T22:12:34.559Z,7.70
2019-02-23T22:15:02.276Z,7.70
2019-02-23T22:17:30.061Z,7.70
2019-02-23T22:20:00.028Z,7.70
2019-02-23T22:22:27.736Z,7.70
2019-02-23T22:24:57.184Z,7.80
2019-02-23T22:27:31.166Z,7.80
2019-02-23T22:29:54.221Z,7.70
2019-02-23T22:32:21.934Z,7.80
2019-02-23T22:34:50.511Z,7.80
2019-02-23T22:37:18.157Z,7.80
2019-02-23T22:39:45.808Z,7.80
2019-02-23T22:42:15.352Z,7.70
2019-02-23T22:44:42.893Z,7.70
2019-02-23T22:47:10.474Z,7.70
2019-02-23T22:49:38.073Z,7.60
2019-02-23T22:52:05.758Z,7.60
2019-02-23T22:54:33.356Z,7.60
2019-02-23T22:57:00.894Z,7.50
2019-02-23T22:59:28.440Z,7.50
2019-02-23T23:01:57.817Z,7.50
2019-02-23T23:04:25.415Z,7.40
2019-02-23T23:06:52.994Z,7.50
2019-02-23T23:09:21.651Z,7.50
2019-02-23T23:11:49.215Z,7.50
2019-02-23T23:14:16.844Z,7.50
2019-02-23T23:16:44.542Z,7.50
2019-02-23T23:19:12.210Z,7.50
2019-02-23T23:21:39.831Z,7.60
2019-02-23T23:24:07.388Z,7.60
2019-02-23T23:26:35.149Z,7.50
2019-02-23T23:29:02.738Z,7.50
2019-02-23T23:31:30.385Z,7.50
2019-02-23T23:33:57.896Z,7.50
2019-02-23T23:36:25.502Z,7.50
2019-02-23T23:38:53.075Z,7.50
2019-02-23T23:41:20.678Z,7.40
2019-02-23T23:43:48.265Z,7.30
2019-02-23T23:46:35.369Z,7.30
2019-02-23T23:49:02.690Z,7.30
2019-02-23T23:51:30.294Z,7.20
2019-02-23T23:53:57.870Z,7.20
2019-02-23T23:56:26.716Z,7.10
2019-02-23T23:58:54.300Z,7.20
